Flight Track Log - Related Links

Times and Time Zones

All times are in EDT time to prevent confusion due to time zone crossing. See the N2352Y flight status page for this flight to view local times or setup timezone preferences in your user account.

Time Position Orientation Groundspeed Altitude Reporting Facility
EDT Latitude Longitude Course Direction KTS MPH feet Rate Location/Type
Fri 04:55:53 PM 40.7142 -85.8044 161° South 142 163 3,300  Level Chicago Center
Fri 04:56:23 PM 40.6936 -85.7953 161° South 142 163 4,200 632 Climbing Chicago Center
Fri 04:57:09 PM 40.6644 -85.7900 172° South 157 181 4,100 -197 Descending Chicago Center
Fri 04:57:24 PM 40.6458 -85.7903 181° South 187 215 4,000  Descending Chicago Center
Fri 04:58:11 PM 40.6097 -85.7850 174° South 181 208 4,100 100 Climbing Chicago Center
Fri 04:58:24 PM 40.5894 -85.7875 185° South 202 232 4,100  Level Chicago Center
Fri 04:59:13 PM 40.5567 -85.7856 177° South 190 219 4,100 -54 Level Chicago Center
Fri 05:00:15 PM 40.4917 -85.7914 184° South 194 223 4,000 -48 Descending Chicago Center
Fri 05:01:18 PM 40.4392 -85.7981 186° South 193 222 4,000  Level Chicago Center
Fri 05:02:20 PM 40.3869 -85.8025 184° South 191 220 4,000  Level Chicago Center
Fri 05:03:22 PM 40.3336 -85.8047 182° South 191 220 4,000  Level Chicago Center
Fri 05:04:24 PM 40.2808 -85.8047 180° South 190 219 4,000  Level Chicago Center
Fri 05:05:30 PM 40.2167 -85.8058 181° South 191 220 4,000  Level Indianapolis Center
Fri 05:06:32 PM 40.1633 -85.8064 180° South 191 220 4,000  Level Indianapolis Center
Fri 05:07:35 PM 40.1089 -85.8086 182° South 193 222 4,000  Level Indianapolis Center
Fri 05:08:37 PM 40.0553 -85.8106 182° South 193 222 4,000  Level Indianapolis Center
Fri 05:09:39 PM 40.0014 -85.8114 181° South 193 222 4,000  Level Indianapolis Center
Fri 05:10:41 PM 39.9367 -85.8133 181° South 193 222 4,000 48 Level Indianapolis Center
Fri 05:11:43 PM 39.8833 -85.8122 179° South 193 222 4,100  Climbing Indianapolis Center
Fri 05:12:45 PM 39.8292 -85.8139 181° South 193 222 4,000 -48 Descending Indianapolis Center
Fri 05:13:47 PM 39.7747 -85.8158 182° South 195 224 4,000  Level Indianapolis Center
Fri 05:14:49 PM 39.7194 -85.8183 182° South 196 226 4,000  Level Indianapolis Center
Fri 05:15:51 PM 39.6658 -85.8194 181° South 195 224 4,000 48 Level Indianapolis Center
Fri 05:16:53 PM 39.6006 -85.8219 182° South 195 224 4,100  Climbing Indianapolis Center
Fri 05:17:55 PM 39.5478 -85.8317 188° South 193 222 4,000 -48 Descending Indianapolis Center
Fri 05:18:57 PM 39.4950 -85.8417 188° South 192 221 4,000  Level Indianapolis Center
Fri 05:19:59 PM 39.4414 -85.8317 172° South 194 223 4,000 48 Level Indianapolis Center
Fri 05:21:01 PM 39.3875 -85.8164 168° South 196 226 4,100  Climbing Indianapolis Center
Fri 05:22:03 PM 39.3342 -85.8028 169° South 196 226 4,000 -48 Descending Indianapolis Center
Fri 05:23:05 PM 39.2700 -85.7858 168° South 197 227 4,000 48 Level Indianapolis Center
Fri 05:24:07 PM 39.2164 -85.7744 171° South 196 226 4,100 48 Climbing Indianapolis Center
Fri 05:25:10 PM 39.1633 -85.7850 189° South 195 224 4,100  Level Indianapolis Center
Fri 05:26:12 PM 39.1100 -85.7944 188° South 195 224 4,100 -48 Level Indianapolis Center
Fri 05:27:14 PM 39.0578 -85.8083 192° South 193 222 4,000 -48 Descending Indianapolis Center
Fri 05:28:16 PM 39.0053 -85.8192 189° South 192 221 4,000  Level Indianapolis Center
Fri 05:29:18 PM 38.9411 -85.8308 188° South 194 223 4,000  Level Indianapolis Center
Fri 05:30:20 PM 38.8881 -85.8400 188° South 193 222 4,000  Level Indianapolis Center
Fri 05:31:22 PM 38.8339 -85.8500 188° South 195 224 4,000  Level Indianapolis Center
Fri 05:32:24 PM 38.7814 -85.8592 188° South 194 223 4,000  Level Indianapolis Center
Fri 05:33:26 PM 38.7281 -85.8694 189° South 192 221 4,000  Level Indianapolis Center
Fri 05:34:28 PM 38.6639 -85.8836 190° South 196 226 4,000  Level Indianapolis Center
Fri 05:35:30 PM 38.6086 -85.8933 188° South 196 226 4,000  Level Indianapolis Center
Fri 05:36:32 PM 38.5547 -85.9031 188° South 195 224 4,000  Level Indianapolis Center
Fri 05:37:34 PM 38.5006 -85.9119 187° South 195 224 4,000  Level Indianapolis Center
Fri 05:38:36 PM 38.4461 -85.9217 188° South 195 224 4,000  Level Indianapolis Center
Fri 05:39:38 PM 38.3919 -85.9308 188° South 196 226 4,000  Level Indianapolis Center
Fri 05:40:40 PM 38.3386 -85.9417 189° South 194 223 4,000  Level Indianapolis Center
Fri 05:41:43 PM 38.2858 -85.9514 188° South 193 222 4,000  Level Indianapolis Center
Fri 05:42:45 PM 38.2197 -85.9611 187° South 194 223 4,000  Level Indianapolis Center
Fri 05:43:47 PM 38.1650 -85.9731 190° South 196 226 4,000  Level Indianapolis Center
Fri 05:44:49 PM 38.1111 -85.9844 189° South 196 226 4,000  Level Indianapolis Center
Fri 05:45:51 PM 38.0564 -85.9953 189° South 197 227 4,000  Level Indianapolis Center
Fri 05:46:53 PM 38.0022 -86.0042 187° South 196 226 4,000  Level Indianapolis Center
Fri 05:47:55 PM 37.9469 -86.0133 187° South 197 227 4,000  Level Indianapolis Center
Fri 05:48:57 PM 37.8922 -86.0231 188° South 197 227 4,000  Level Indianapolis Center
Fri 05:49:59 PM 37.8381 -86.0319 187° South 197 227 4,000  Level Indianapolis Center
Fri 05:51:01 PM 37.7725 -86.0458 190° South 197 227 4,000  Level Indianapolis Center
Fri 05:52:03 PM 37.7181 -86.0564 189° South 196 226 4,000  Level Indianapolis Center
Fri 05:53:05 PM 37.6631 -86.0653 187° South 198 228 4,000  Level Indianapolis Center
Fri 05:54:07 PM 37.6078 -86.0742 187° South 199 229 4,000 48 Level Indianapolis Center
Fri 05:55:09 PM 37.5517 -86.0844 188° South 200 230 4,100 48 Climbing Indianapolis Center
Fri 05:56:11 PM 37.4969 -86.0958 189° South 199 229 4,100  Level Indianapolis Center
Fri 05:57:14 PM 37.4356 -86.1081 189° South 198 228 4,100  Level Indianapolis Center
Fri 05:58:16 PM 37.3808 -86.1181 188° South 197 227 4,100  Level Indianapolis Center
Fri 05:59:18 PM 37.3258 -86.1261 187° South 197 227 4,100 -48 Level Indianapolis Center
Fri 06:00:20 PM 37.2686 -86.1339 186° South 202 232 4,000 -48 Descending Indianapolis Center
Fri 06:01:22 PM 37.2147 -86.1450 189° South 197 227 4,000  Level Indianapolis Center
Fri 06:02:24 PM 37.1489 -86.1578 189° South 198 228 4,000  Level Indianapolis Center
Fri 06:03:26 PM 37.0958 -86.1686 189° South 197 227 4,000  Level Indianapolis Center
Fri 06:04:28 PM 37.0397 -86.1794 189° South 200 230 4,000  Level Indianapolis Center
Fri 06:05:30 PM 36.9850 -86.1883 187° South 198 228 4,000  Level Indianapolis Center
Fri 06:06:32 PM 36.9286 -86.1967 187° South 200 230 4,000  Level Indianapolis Center
Fri 06:07:34 PM 36.8728 -86.2061 188° South 200 230 4,000  Level Indianapolis Center
Fri 06:08:11 PM 36.8336 -86.2147 190° South 198 228 4,000  Level Memphis Center
Fri 06:09:11 PM 36.7797 -86.2278 191° South 198 228 4,000  Level Memphis Center
Fri 06:10:11 PM 36.7239 -86.2383 189° South 198 228 4,000  Level Memphis Center
Fri 06:11:11 PM 36.6700 -86.2464 187° South 198 228 4,000 150 Level Memphis Center
Fri 06:12:11 PM 36.6158 -86.2517 184° South 198 228 4,300 700 Climbing Memphis Center
Fri 06:13:11 PM 36.5703 -86.2592 188° South 183 211 5,400 850 Climbing Memphis Center
Fri 06:14:11 PM 36.5247 -86.2692 190° South 177 204 6,000 300 Climbing Memphis Center
Fri 06:15:11 PM 36.4708 -86.2772 187° South 183 211 6,000  Level Memphis Center
Fri 06:16:11 PM 36.4147 -86.2850 186° South 201 231 6,000  Level Memphis Center
Fri 06:17:11 PM 36.3567 -86.2933 187° South 206 237 6,000  Level Memphis Center
Fri 06:18:11 PM 36.3008 -86.3064 191° South 206 237 6,000  Level Memphis Center
Fri 06:19:11 PM 36.2386 -86.3172 188° South 211 243 6,000  Level Memphis Center
Fri 06:20:11 PM 36.1828 -86.3275 188° South 211 243 6,000  Level Memphis Center
Fri 06:21:11 PM 36.1247 -86.3381 188° South 211 243 6,000  Level Memphis Center
Fri 06:22:11 PM 36.0686 -86.3486 189° South 211 243 6,000  Level Memphis Center
Fri 06:23:11 PM 36.0128 -86.3564 186° South 211 243 6,000  Level Memphis Center
Fri 06:24:43 PM 35.9167 -86.3667 185° South 204 235 6,000  Level Nashville TRACON
Fri 06:25:47 PM 35.8694 -86.3789 192° South 207 238 6,000  Level Memphis Center
Fri 06:26:47 PM 35.8094 -86.3919 190° South 207 238 6,000  Level Memphis Center
Fri 06:27:47 PM 35.7533 -86.3997 186° South 207 238 6,000  Level Memphis Center
Fri 06:28:47 PM 35.6975 -86.4128 191° South 207 238 6,000  Level Memphis Center
Fri 06:29:47 PM 35.6417 -86.4231 189° South 207 238 6,000  Level Memphis Center
Fri 06:30:47 PM 35.5856 -86.4308 186° South 207 238 6,000  Level Memphis Center
Fri 06:31:47 PM 35.5272 -86.4386 186° South 207 238 6,000  Level Memphis Center
Fri 06:32:47 PM 35.4714 -86.4464 186° South 212 244 6,000  Level Memphis Center
Fri 06:33:47 PM 35.4133 -86.4567 188° South 212 244 6,000  Level Memphis Center
Fri 06:34:47 PM 35.3592 -86.4644 187° South 212 244 6,000  Level Memphis Center
Fri 06:35:47 PM 35.3075 -86.4744 189° South 212 244 6,000  Level Memphis Center
Fri 06:36:47 PM 35.2514 -86.4822 186° South 212 244 6,000  Level Memphis Center
Fri 06:37:47 PM 35.1933 -86.4925 188° South 212 244 6,000  Level Memphis Center
Fri 06:38:47 PM 35.1372 -86.5028 189° South 212 244 6,000  Level Memphis Center
Fri 06:39:47 PM 35.0750 -86.5106 186° South 218 251 6,000  Level Memphis Center
Fri 06:40:47 PM 35.0189 -86.5208 189° South 212 244 6,000  Level Memphis Center
Fri 06:41:47 PM 34.9628 -86.5308 188° South 212 244 6,000  Level Memphis Center
Fri 06:42:47 PM 34.9047 -86.5411 188° South 212 244 6,000  Level Memphis Center
Fri 06:43:47 PM 34.8464 -86.5464 184° South 217 250 6,000  Level Memphis Center
Fri 06:44:47 PM 34.7886 -86.5592 190° South 217 250 6,000  Level Memphis Center
Fri 06:45:47 PM 34.7303 -86.5667 186° South 217 250 6,000  Level Memphis Center
Fri 06:46:47 PM 34.6742 -86.5742 186° South 217 250 6,000  Level Memphis Center
Fri 06:47:47 PM 34.6161 -86.5844 188° South 217 250 6,000  Level Memphis Center
Fri 06:48:47 PM 34.5558 -86.5947 188° South 217 250 6,000  Level Memphis Center
Fri 06:49:47 PM 34.5103 -86.6017 187° South 217 250 6,000  Level Memphis Center
Fri 06:50:47 PM 34.4481 -86.6119 188° South 217 250 6,000  Level Memphis Center
Fri 06:52:00 PM 34.3822 -86.6195 185° South  Level FlightAware Approximate
Fri 06:53:47 PM 34.2614 -86.6375 187° South 208 239 6,000  Level Atlanta Center
Fri 06:54:53 PM 34.2008 -86.6483 188° South 208 239 6,000  Level Atlanta Center
Fri 06:55:48 PM 34.1483 -86.6567 187° South 208 239 6,000  Level Atlanta Center
Fri 06:56:49 PM 34.0917 -86.6675 189° South 210 242 6,000 -99 Level Atlanta Center
Fri 06:57:49 PM 34.0331 -86.6783 189° South 212 244 5,800 -298 Descending Atlanta Center
Fri 06:58:50 PM 33.9725 -86.6864 186° South 222 255 5,400 -295 Descending Atlanta Center
Fri 06:59:00 PM 34.0035 -86.6674 187° South  Level FlightAware Approximate
Fri 06:59:51 PM 33.9075 -86.6994 189° South 220 253 5,200  Level Atlanta Center
Fri 07:00:52 PM 33.8525 -86.7253 201° Southwest 213 245 5,000 -99 Descending Atlanta Center
Fri 07:01:52 PM 33.8000 -86.7461 198° South 197 227 5,000  Level Atlanta Center
Fri 07:02:53 PM 33.7494 -86.7669 199° South 188 216 5,000 -295 Level Atlanta Center
Fri 07:03:54 PM 33.7047 -86.8006 212° Southwest 184 212 4,400 -492 Descending Atlanta Center
Fri 07:04:55 PM 33.6561 -86.8289 206° Southwest 184 212 4,000 -347 Descending Atlanta Center
Fri 07:05:55 PM 33.6181 -86.8578 212° Southwest 167 192 3,700 -259 Descending Atlanta Center
Fri 07:07:14 PM 33.5617 -86.8608 183° South 163 188 3,400 -703 Descending Atlanta Center
Fri 07:08:03 PM 33.5286 -86.8397 152° Southeast 144 166 2,200 -1,200 Descending Atlanta Center
Fri 07:09:04 PM 33.5378 -86.8003 74° East 129 148 1,200 -984 Descending Atlanta Center
Fri 07:11:00 PM 33.5500 -86.7500 68° East  Level FlightAware Approximate

Login

Don't have an account? Register now (free) for customized features, flight alerts, and more!